Time,TemperatureF,DewpointF,PressureIn,WindDirection,WindDirectionDegrees,WindSpeedMPH,WindSpeedGustMPH,Humidity,HourlyPrecipIn,Conditions,Clouds,dailyrainin,SoftwareType,DateUTC
2013-11-05 00:01:00,42.1,34.7,30.53,ENE,61,0.0,0.0,75,0.00,CLR,,0.00,WeatherDisplay:10.37,2013-11-05 05:01:00,
2013-11-05 00:02:00,42.1,34.7,30.54,ENE,61,0.0,0.0,75,0.00,CLR,,0.00,WeatherDisplay:10.37,2013-11-05 05:02:00,
2013-11-05 00:07:00,42.1,34.4,30.53,ENE,58,1.2,0.0,74,0.00,CLR,,0.00,WeatherDisplay:10.37,2013-11-05 05:07:00,
2013-11-05 00:12:00,42.2,34.2,30.53,ENE,58,2.3,2.3,73,0.00,CLR,,0.00,WeatherDisplay:10.37,2013-11-05 05:12:00,
2013-11-05 00:17:00,42.4,35.0,30.54,ENE,58,0.0,0.0,75,0.00,CLR,,0.00,WeatherDisplay:10.37,2013-11-05 05:17:00,
2013-11-05 00:22:00,42.5,34.5,30.54,ENE,57,0.0,0.0,73,0.00,CLR,,0.00,WeatherDisplay:10.37,2013-11-05 05:22:00,
2013-11-05 00:27:00,42.6,34.2,30.54,NNE,33,0.0,0.0,72,0.00,CLR,,0.00,WeatherDisplay:10.37,2013-11-05 05:27:00,
2013-11-05 00:32:00,42.7,34.3,30.53,NE,52,6.9,6.9,72,0.00,CLR,,0.00,WeatherDisplay:10.37,2013-11-05 05:32:00,
2013-11-05 00:37:00,43.0,34.2,30.54,ENE,60,4.6,4.6,71,0.00,CLR,,0.00,WeatherDisplay:10.37,2013-11-05 05:37:00,
2013-11-05 00:42:00,43.1,34.3,30.54,ENE,62,4.6,4.6,71,0.00,CLR,,0.00,WeatherDisplay:10.37,2013-11-05 05:42:00,
2013-11-05 00:47:00,43.3,34.9,30.55,ENE,59,0.0,0.0,72,0.00,CLR,,0.00,WeatherDisplay:10.37,2013-11-05 05:47:00,
2013-11-05 00:52:00,43.3,35.2,30.54,ENE,59,0.0,0.0,73,0.00,CLR,,0.00,WeatherDisplay:10.37,2013-11-05 05:52:00,
2013-11-05 00:57:00,43.1,35.7,30.53,ENE,59,0.0,0.0,75,0.00,CLR,,0.00,WeatherDisplay:10.37,2013-11-05 05:57:00,
2013-11-05 01:02:00,43.0,34.9,30.54,ENE,59,0.0,0.0,73,0.00,CLR,,0.00,WeatherDisplay:10.37,2013-11-05 06:02:00,
2013-11-05 01:07:00,42.6,35.6,30.54,ENE,59,0.0,0.0,76,0.00,CLR,,0.00,WeatherDisplay:10.37,2013-11-05 06:07:00,
2013-11-05 01:12:00,42.3,34.9,30.54,ENE,59,2.3,2.3,75,0.00,CLR,,0.00,WeatherDisplay:10.37,2013-11-05 06:12:00,
2013-11-05 01:17:00,42.0,34.3,30.54,ENE,59,0.0,0.0,74,0.00,CLR,,0.00,WeatherDisplay:10.37,2013-11-05 06:17:00,
2013-11-05 01:22:00,41.9,35.2,30.54,WNW,286,0.0,0.0,77,0.00,CLR,,0.00,WeatherDisplay:10.37,2013-11-05 06:22:00,
2013-11-05 01:27:00,41.7,34.7,30.54,WNW,283,0.0,0.0,76,0.00,CLR,,0.00,WeatherDisplay:10.37,2013-11-05 06:27:00,
2013-11-05 01:32:00,41.6,33.9,30.54,NE,35,4.6,4.6,74,0.00,CLR,,0.00,WeatherDisplay:10.37,2013-11-05 06:32:00,
2013-11-05 01:37:00,41.7,34.4,30.54,ESE,102,2.3,2.3,75,0.00,CLR,,0.00,WeatherDisplay:10.37,2013-11-05 06:37:00,
2013-11-05 01:42:00,41.9,34.2,30.55,East,101,1.2,0.0,74,0.00,CLR,,0.00,WeatherDisplay:10.37,2013-11-05 06:42:00,
2013-11-05 01:47:00,41.9,34.2,30.54,East,79,0.0,0.0,74,0.00,CLR,,0.00,WeatherDisplay:10.37,2013-11-05 06:47:00,
2013-11-05 01:52:00,42.0,34.6,30.54,East,79,0.0,0.0,75,0.00,CLR,,0.00,WeatherDisplay:10.37,2013-11-05 06:52:00,
2013-11-05 01:57:00,42.0,35.3,30.53,East,79,0.0,0.0,77,0.00,CLR,,0.00,WeatherDisplay:10.37,2013-11-05 06:57:00,
2013-11-05 02:02:00,41.9,35.2,30.54,East,79,0.0,0.0,77,0.00,CLR,,0.00,WeatherDisplay:10.37,2013-11-05 07:02:00,
2013-11-05 02:07:00,41.7,35.0,30.54,East,81,0.0,0.0,77,0.00,CLR,,0.00,WeatherDisplay:10.37,2013-11-05 07:07:00,
2013-11-05 02:12:00,41.5,34.5,30.55,NNE,31,0.0,0.0,76,0.00,CLR,,0.00,WeatherDisplay:10.37,2013-11-05 07:12:00,
2013-11-05 02:17:00,41.4,34.1,30.55,NNE,31,1.2,1.2,75,0.00,CLR,,0.00,WeatherDisplay:10.37,2013-11-05 07:17:00,
2013-11-05 02:22:00,41.5,34.5,30.55,NNE,31,0.0,0.0,76,0.00,CLR,,0.00,WeatherDisplay:10.37,2013-11-05 07:22:00,
2013-11-05 02:27:00,41.5,35.5,30.54,NNE,31,0.0,0.0,79,0.00,CLR,,0.00,WeatherDisplay:10.37,2013-11-05 07:27:00,
2013-11-05 02:32:00,41.3,34.6,30.54,NNE,31,0.0,0.0,77,0.00,CLR,,0.00,WeatherDisplay:10.37,2013-11-05 07:32:00,
2013-11-05 02:37:00,41.2,34.5,30.55,NNE,31,0.0,0.0,77,0.00,CLR,,0.00,WeatherDisplay:10.37,2013-11-05 07:37:00,
2013-11-05 02:42:00,41.0,35.0,30.54,NE,46,0.0,0.0,79,0.00,CLR,,0.00,WeatherDisplay:10.37,2013-11-05 07:42:00,
2013-11-05 02:47:00,40.8,34.1,30.54,East,92,0.0,0.0,77,0.00,CLR,,0.00,WeatherDisplay:10.37,2013-11-05 07:47:00,
2013-11-05 02:52:00,40.8,35.1,30.54,East,92,0.0,0.0,80,0.00,CLR,,0.00,WeatherDisplay:10.37,2013-11-05 07:52:00,
2013-11-05 02:57:00,40.6,34.6,30.55,East,92,0.0,0.0,79,0.00,CLR,,0.00,WeatherDisplay:10.37,2013-11-05 07:57:00,
2013-11-05 03:02:00,40.7,34.4,30.54,East,92,0.0,0.0,78,0.00,CLR,,0.00,WeatherDisplay:10.37,2013-11-05 08:02:00,
2013-11-05 03:07:00,40.7,34.0,30.53,ENE,68,2.3,2.3,77,0.00,CLR,,0.00,WeatherDisplay:10.37,2013-11-05 08:07:00,
2013-11-05 03:12:00,40.7,34.4,30.54,ENE,68,0.0,0.0,78,0.00,CLR,,0.00,WeatherDisplay:10.37,2013-11-05 08:12:00,
2013-11-05 03:17:00,40.7,34.7,30.53,ENE,68,0.0,0.0,79,0.00,CLR,,0.00,WeatherDisplay:10.37,2013-11-05 08:17:00,
2013-11-05 03:22:00,40.6,35.2,30.53,ENE,68,0.0,0.0,81,0.00,CLR,,0.00,WeatherDisplay:10.37,2013-11-05 08:22:00,
2013-11-05 03:27:00,40.5,34.5,30.52,ENE,68,0.0,0.0,79,0.00,CLR,,0.00,WeatherDisplay:10.37,2013-11-05 08:27:00,
2013-11-05 03:32:00,40.4,35.0,30.52,ENE,68,0.0,0.0,81,0.00,CLR,,0.00,WeatherDisplay:10.37,2013-11-05 08:32:00,
2013-11-05 03:37:00,40.4,33.8,30.52,ENE,69,0.0,0.0,77,0.00,CLR,,0.00,WeatherDisplay:10.37,2013-11-05 08:37:00,
2013-11-05 03:42:00,40.4,34.7,30.52,ENE,69,0.0,0.0,80,0.00,CLR,,0.00,WeatherDisplay:10.37,2013-11-05 08:42:00,
2013-11-05 03:47:00,40.3,34.3,30.52,ENE,69,0.0,0.0,79,0.00,CLR,,0.00,WeatherDisplay:10.37,2013-11-05 08:47:00,
2013-11-05 03:52:00,40.2,34.5,30.53,ENE,68,0.0,0.0,80,0.00,CLR,,0.00,WeatherDisplay:10.37,2013-11-05 08:52:00,
2013-11-05 03:57:00,40.1,33.8,30.53,ENE,68,0.0,0.0,78,0.00,CLR,,0.00,WeatherDisplay:10.37,2013-11-05 08:57:00,
2013-11-05 04:02:00,40.1,34.1,30.53,ENE,69,0.0,0.0,79,0.00,CLR,,0.00,WeatherDisplay:10.37,2013-11-05 09:02:00,
2013-11-05 04:07:00,40.2,33.9,30.53,ENE,68,0.0,0.0,78,0.00,CLR,,0.00,WeatherDisplay:10.37,2013-11-05 09:07:00,
2013-11-05 04:12:00,40.2,34.2,30.53,ENE,69,0.0,0.0,79,0.00,CLR,,0.00,WeatherDisplay:10.37,2013-11-05 09:12:00,
2013-11-05 04:17:00,40.0,34.0,30.53,ENE,69,1.2,0.0,79,0.00,CLR,,0.00,WeatherDisplay:10.37,2013-11-05 09:17:00,
2013-11-05 04:22:00,39.8,34.1,30.53,ENE,75,2.3,2.3,80,0.00,CLR,,0.00,WeatherDisplay:10.37,2013-11-05 09:22:00,
2013-11-05 04:27:00,39.6,33.6,30.53,ENE,75,0.0,0.0,79,0.00,CLR,,0.00,WeatherDisplay:10.37,2013-11-05 09:27:00,
2013-11-05 04:32:00,39.5,33.2,30.54,ENE,71,0.0,0.0,78,0.00,CLR,,0.00,WeatherDisplay:10.37,2013-11-05 09:32:00,
2013-11-05 04:37:00,39.5,33.2,30.54,ENE,71,0.0,0.0,78,0.00,CLR,,0.00,WeatherDisplay:10.37,2013-11-05 09:37:00,
2013-11-05 04:42:00,39.5,33.2,30.54,ENE,71,0.0,0.0,78,0.00,CLR,,0.00,WeatherDisplay:10.37,2013-11-05 09:42:00,
2013-11-05 04:47:00,39.4,33.4,30.54,ENE,71,0.0,0.0,79,0.00,CLR,,0.00,WeatherDisplay:10.37,2013-11-05 09:47:00,
2013-11-05 04:52:00,39.3,33.3,30.54,ENE,71,0.0,0.0,79,0.00,CLR,,0.00,WeatherDisplay:10.37,2013-11-05 09:52:00,
2013-11-05 04:57:00,39.3,34.3,30.54,ENE,71,0.0,0.0,82,0.00,CLR,,0.00,WeatherDisplay:10.37,2013-11-05 09:57:00,
2013-11-05 05:02:00,39.2,33.9,30.54,ENE,71,0.0,0.0,81,0.00,CLR,,0.00,WeatherDisplay:10.37,2013-11-05 10:02:00,
2013-11-05 05:07:00,39.1,33.8,30.54,ENE,71,0.0,0.0,81,0.00,CLR,,0.00,WeatherDisplay:10.37,2013-11-05 10:07:00,
2013-11-05 05:12:00,39.1,34.1,30.55,ENE,71,0.0,0.0,82,0.00,CLR,,0.00,WeatherDisplay:10.37,2013-11-05 10:12:00,
2013-11-05 05:17:00,39.0,34.3,30.55,ENE,71,0.0,0.0,83,0.00,CLR,,0.00,WeatherDisplay:10.37,2013-11-05 10:17:00,
2013-11-05 05:22:00,39.0,34.3,30.55,ENE,71,0.0,0.0,83,0.00,CLR,,0.00,WeatherDisplay:10.37,2013-11-05 10:22:00,
2013-11-05 05:27:00,38.9,34.2,30.55,ENE,71,0.0,0.0,83,0.00,CLR,,0.00,WeatherDisplay:10.37,2013-11-05 10:27:00,
2013-11-05 05:32:00,38.9,33.9,30.55,ENE,71,0.0,0.0,82,0.00,CLR,,0.00,WeatherDisplay:10.37,2013-11-05 10:32:00,
2013-11-05 05:37:00,38.7,34.0,30.55,ENE,71,0.0,0.0,83,0.00,CLR,,0.00,WeatherDisplay:10.37,2013-11-05 10:37:00,
2013-11-05 05:42:00,38.7,34.0,30.55,ENE,71,0.0,0.0,83,0.00,CLR,,0.00,WeatherDisplay:10.37,2013-11-05 10:42:00,
2013-11-05 05:47:00,38.6,34.2,30.54,ENE,71,0.0,0.0,84,0.00,CLR,,0.00,WeatherDisplay:10.37,2013-11-05 10:47:00,
2013-11-05 05:52:00,38.6,34.2,30.54,ENE,71,0.0,0.0,84,0.00,CLR,,0.00,WeatherDisplay:10.37,2013-11-05 10:52:00,
2013-11-05 05:58:00,38.5,34.1,30.54,ENE,71,0.0,0.0,84,0.00,CLR,,0.00,WeatherDisplay:10.37,2013-11-05 10:58:00,
2013-11-05 06:03:00,38.5,34.7,30.54,ENE,71,0.0,0.0,86,0.00,CLR,,0.00,WeatherDisplay:10.37,2013-11-05 11:03:00,
2013-11-05 06:08:00,38.4,34.3,30.54,ENE,71,0.0,0.0,85,0.00,CLR,,0.00,WeatherDisplay:10.37,2013-11-05 11:08:00,
2013-11-05 06:13:00,38.3,34.2,30.54,ENE,71,0.0,0.0,85,0.00,CLR,,0.00,WeatherDisplay:10.37,2013-11-05 11:13:00,
2013-11-05 06:18:00,38.1,34.0,30.54,ENE,71,0.0,0.0,85,0.00,CLR,,0.00,WeatherDisplay:10.37,2013-11-05 11:18:00,
2013-11-05 06:23:00,38.1,34.3,30.54,ENE,71,0.0,0.0,86,0.00,CLR,,0.00,WeatherDisplay:10.37,2013-11-05 11:23:00,
2013-11-05 06:28:00,38.0,34.2,30.54,ENE,71,0.0,0.0,86,0.00,CLR,,0.00,WeatherDisplay:10.37,2013-11-05 11:28:00,
2013-11-05 06:33:00,37.9,34.4,30.53,ENE,71,0.0,0.0,87,0.00,CLR,,0.00,WeatherDisplay:10.37,2013-11-05 11:33:00,
2013-11-05 06:38:00,37.8,34.0,30.54,ENE,71,0.0,0.0,86,0.00,CLR,,0.00,WeatherDisplay:10.37,2013-11-05 11:38:00,
2013-11-05 06:43:00,37.7,34.2,30.54,ENE,71,0.0,0.0,87,0.00,CLR,,0.00,WeatherDisplay:10.37,2013-11-05 11:43:00,
2013-11-05 06:48:00,37.6,33.8,30.53,ENE,71,0.0,0.0,86,0.00,CLR,,0.00,WeatherDisplay:10.37,2013-11-05 11:48:00,
2013-11-05 06:53:00,37.4,33.9,30.54,ENE,71,0.0,0.0,87,0.00,CLR,,0.00,WeatherDisplay:10.37,2013-11-05 11:53:00,
2013-11-05 06:58:00,37.3,33.5,30.54,ENE,71,0.0,0.0,86,0.00,CLR,,0.00,WeatherDisplay:10.37,2013-11-05 11:58:00,
2013-11-05 07:03:00,37.2,33.7,30.55,ENE,71,0.0,0.0,87,0.00,CLR,,0.00,WeatherDisplay:10.37,2013-11-05 12:03:00,
2013-11-05 07:08:00,37.0,33.5,30.55,ENE,71,0.0,0.0,87,0.00,CLR,,0.00,WeatherDisplay:10.37,2013-11-05 12:08:00,
2013-11-05 07:13:00,37.0,33.8,30.55,ENE,71,1.2,0.0,88,0.00,CLR,,0.00,WeatherDisplay:10.37,2013-11-05 12:13:00,
2013-11-05 07:18:00,37.0,33.2,30.56,ENE,71,0.0,0.0,86,0.00,CLR,,0.00,WeatherDisplay:10.37,2013-11-05 12:18:00,
2013-11-05 07:23:00,37.0,33.5,30.55,ENE,71,0.0,0.0,87,0.00,CLR,,0.00,WeatherDisplay:10.37,2013-11-05 12:23:00,
2013-11-05 07:28:00,37.0,33.5,30.56,ENE,71,0.0,0.0,87,0.00,CLR,,0.00,WeatherDisplay:10.37,2013-11-05 12:28:00,
2013-11-05 07:33:00,37.1,33.6,30.56,ENE,71,0.0,0.0,87,0.00,CLR,,0.00,WeatherDisplay:10.37,2013-11-05 12:33:00,
2013-11-05 07:38:00,37.1,33.6,30.56,ENE,71,1.2,1.2,87,0.00,CLR,,0.00,WeatherDisplay:10.37,2013-11-05 12:38:00,
2013-11-05 07:43:00,37.2,33.7,30.56,ENE,71,0.0,0.0,87,0.00,CLR,,0.00,WeatherDisplay:10.37,2013-11-05 12:43:00,
2013-11-05 07:48:00,37.3,33.8,30.56,ENE,71,0.0,0.0,87,0.00,CLR,,0.00,WeatherDisplay:10.37,2013-11-05 12:48:00,
2013-11-05 07:53:00,37.5,34.0,30.56,ENE,71,2.3,0.0,87,0.00,CLR,,0.00,WeatherDisplay:10.37,2013-11-05 12:53:00,
2013-11-05 07:58:00,37.6,34.1,30.56,ENE,71,0.0,0.0,87,0.00,CLR,,0.00,WeatherDisplay:10.37,2013-11-05 12:58:00,
2013-11-05 08:03:00,37.8,34.6,30.56,ENE,71,0.0,0.0,88,0.00,CLR,,0.00,WeatherDisplay:10.37,2013-11-05 13:03:00,
2013-11-05 08:08:00,37.9,34.4,30.56,ENE,71,0.0,0.0,87,0.00,CLR,,0.00,WeatherDisplay:10.37,2013-11-05 13:08:00,
2013-11-05 08:13:00,38.0,34.2,30.56,ENE,71,0.0,0.0,86,0.00,CLR,,0.00,WeatherDisplay:10.37,2013-11-05 13:13:00,
2013-11-05 08:18:00,38.1,34.3,30.56,ENE,71,0.0,0.0,86,0.00,CLR,,0.00,WeatherDisplay:10.37,2013-11-05 13:18:00,
2013-11-05 08:23:00,38.3,34.2,30.56,ENE,71,0.0,0.0,85,0.00,CLR,,0.00,WeatherDisplay:10.37,2013-11-05 13:23:00,
2013-11-05 08:28:00,38.4,34.3,30.56,ENE,71,0.0,0.0,85,0.00,CLR,,0.00,WeatherDisplay:10.37,2013-11-05 13:28:00,
2013-11-05 08:33:00,38.5,34.4,30.57,ENE,71,0.0,0.0,85,0.00,CLR,,0.00,WeatherDisplay:10.37,2013-11-05 13:33:00,
2013-11-05 08:38:00,38.6,34.5,30.57,ENE,71,0.0,0.0,85,0.00,CLR,,0.00,WeatherDisplay:10.37,2013-11-05 13:38:00,
2013-11-05 08:43:00,38.6,34.2,30.56,ENE,71,0.0,0.0,84,0.00,CLR,,0.00,WeatherDisplay:10.37,2013-11-05 13:43:00,
2013-11-05 08:48:00,38.7,34.3,30.56,ENE,71,0.0,0.0,84,0.00,CLR,,0.00,WeatherDisplay:10.37,2013-11-05 13:48:00,
2013-11-05 08:53:00,38.7,34.6,30.56,ENE,71,0.0,0.0,85,0.00,CLR,,0.00,WeatherDisplay:10.37,2013-11-05 13:53:00,
2013-11-05 08:58:00,38.7,34.3,30.56,ENE,71,1.2,0.0,84,0.00,CLR,,0.00,WeatherDisplay:10.37,2013-11-05 13:58:00,
2013-11-05 09:03:00,38.8,34.4,30.56,ENE,71,0.0,0.0,84,0.00,CLR,,0.00,WeatherDisplay:10.37,2013-11-05 14:03:00,
2013-11-05 09:08:00,38.9,34.5,30.56,ENE,71,0.0,0.0,84,0.00,CLR,,0.00,WeatherDisplay:10.37,2013-11-05 14:08:00,
2013-11-05 09:13:00,39.1,35.0,30.56,ENE,72,0.0,0.0,85,0.00,CLR,,0.00,WeatherDisplay:10.37,2013-11-05 14:13:00,
2013-11-05 09:18:00,39.4,35.6,30.56,ENE,72,0.0,0.0,86,0.00,CLR,,0.00,WeatherDisplay:10.37,2013-11-05 14:18:00,
2013-11-05 09:23:00,39.6,35.2,30.56,ENE,72,0.0,0.0,84,0.00,CLR,,0.00,WeatherDisplay:10.37,2013-11-05 14:23:00,
2013-11-05 09:28:00,39.9,35.2,30.56,ENE,72,2.2,2.2,83,0.00,CLR,,0.00,WeatherDisplay:10.37,2013-11-05 14:28:00,
2013-11-05 09:33:00,40.1,35.4,30.56,ENE,72,0.0,0.0,83,0.00,CLR,,0.00,WeatherDisplay:10.37,2013-11-05 14:33:00,
2013-11-05 09:38:00,40.4,35.3,30.56,ENE,72,0.0,0.0,82,0.00,CLR,,0.00,WeatherDisplay:10.37,2013-11-05 14:38:00,
2013-11-05 09:43:00,40.8,35.7,30.56,ENE,71,0.0,0.2,82,0.00,CLR,,0.00,WeatherDisplay:10.37,2013-11-05 14:43:00,
2013-11-05 09:48:00,41.2,35.5,30.56,ENE,71,0.0,0.0,80,0.00,CLR,,0.00,WeatherDisplay:10.37,2013-11-05 14:48:00,
2013-11-05 09:53:00,41.6,35.6,30.55,ENE,71,0.0,0.0,79,0.00,CLR,,0.00,WeatherDisplay:10.37,2013-11-05 14:53:00,
2013-11-05 09:58:00,42.0,35.6,30.56,ENE,71,1.2,0.0,78,0.00,CLR,,0.00,WeatherDisplay:10.37,2013-11-05 14:58:00,
2013-11-05 10:03:00,42.5,36.1,30.56,ENE,69,0.0,0.0,78,0.00,CLR,,0.00,WeatherDisplay:10.37,2013-11-05 15:03:00,
2013-11-05 10:08:00,42.9,35.9,30.56,ENE,69,0.0,0.0,76,0.00,CLR,,0.00,WeatherDisplay:10.37,2013-11-05 15:08:00,
2013-11-05 10:13:00,43.3,35.6,30.56,ENE,69,0.0,0.0,74,0.00,CLR,,0.00,WeatherDisplay:10.37,2013-11-05 15:13:00,
2013-11-05 10:18:00,43.9,35.8,30.56,ENE,69,0.0,0.0,73,0.00,CLR,,0.00,WeatherDisplay:10.37,2013-11-05 15:18:00,
2013-11-05 10:23:00,44.4,35.9,30.56,ENE,69,0.0,0.0,72,0.00,CLR,,0.00,WeatherDisplay:10.37,2013-11-05 15:23:00,
2013-11-05 10:28:00,44.9,36.4,30.56,ENE,69,0.0,0.0,72,0.00,CLR,,0.00,WeatherDisplay:10.37,2013-11-05 15:28:00,
2013-11-05 10:33:00,45.3,36.4,30.56,ENE,69,0.0,0.0,71,0.00,CLR,,0.00,WeatherDisplay:10.37,2013-11-05 15:33:00,
2013-11-05 10:38:00,45.8,36.6,30.55,ENE,67,1.2,1.2,70,0.00,CLR,,0.00,WeatherDisplay:10.37,2013-11-05 15:38:00,
2013-11-05 10:43:00,46.3,37.4,30.55,ENE,67,0.0,0.0,71,0.00,CLR,,0.00,WeatherDisplay:10.37,2013-11-05 15:43:00,
2013-11-05 10:48:00,46.7,37.4,30.55,ENE,67,0.0,0.0,70,0.00,CLR,,0.00,WeatherDisplay:10.37,2013-11-05 15:48:00,
2013-11-05 10:53:00,47.0,37.4,30.55,ENE,67,0.0,0.0,69,0.00,CLR,,0.00,WeatherDisplay:10.37,2013-11-05 15:53:00,
2013-11-05 10:58:00,47.4,37.0,30.55,ENE,67,2.3,2.3,67,0.00,CLR,,0.00,WeatherDisplay:10.37,2013-11-05 15:58:00,
2013-11-05 11:03:00,47.8,37.0,30.55,ENE,67,1.2,1.2,66,0.00,CLR,,0.00,WeatherDisplay:10.37,2013-11-05 16:03:00,
2013-11-05 11:08:00,48.3,37.5,30.54,ENE,67,1.2,0.0,66,0.00,CLR,,0.00,WeatherDisplay:10.37,2013-11-05 16:08:00,
2013-11-05 11:13:00,48.7,38.2,30.55,ENE,67,1.2,0.0,67,0.00,CLR,,0.00,WeatherDisplay:10.37,2013-11-05 16:13:00,
2013-11-05 11:18:00,49.2,37.9,30.55,ENE,67,0.0,0.0,65,0.00,CLR,,0.00,WeatherDisplay:10.37,2013-11-05 16:18:00,
2013-11-05 11:23:00,49.6,37.9,30.55,ENE,67,0.0,0.0,64,0.00,CLR,,0.00,WeatherDisplay:10.37,2013-11-05 16:23:00,
2013-11-05 11:28:00,50.1,38.0,30.54,ENE,67,2.3,2.3,63,0.00,CLR,,0.00,WeatherDisplay:10.37,2013-11-05 16:28:00,
2013-11-05 11:33:00,50.6,38.5,30.54,ENE,67,0.0,0.0,63,0.00,CLR,,0.00,WeatherDisplay:10.37,2013-11-05 16:33:00,
2013-11-05 11:38:00,51.1,38.1,30.53,ENE,67,0.0,0.0,61,0.00,CLR,,0.00,WeatherDisplay:10.37,2013-11-05 16:38:00,
2013-11-05 11:43:00,51.7,39.1,30.54,ENE,67,1.2,0.0,62,0.00,CLR,,0.00,WeatherDisplay:10.37,2013-11-05 16:43:00,
2013-11-05 11:48:00,52.2,39.1,30.53,ENE,67,0.0,0.0,61,0.00,CLR,,0.00,WeatherDisplay:10.37,2013-11-05 16:48:00,
2013-11-05 11:53:00,52.8,39.3,30.53,ENE,67,0.0,0.0,60,0.00,CLR,,0.00,WeatherDisplay:10.37,2013-11-05 16:53:00,
2013-11-05 11:58:00,53.3,39.3,30.53,ENE,67,2.3,2.3,59,0.00,CLR,,0.00,WeatherDisplay:10.37,2013-11-05 16:58:00,
2013-11-05 12:03:00,53.8,39.8,30.53,ENE,67,1.2,0.0,59,0.00,CLR,,0.00,WeatherDisplay:10.37,2013-11-05 17:03:00,
2013-11-05 12:08:00,54.2,39.7,30.53,ENE,67,0.0,0.0,58,0.00,CLR,,0.00,WeatherDisplay:10.37,2013-11-05 17:08:00,
2013-11-05 12:13:00,54.7,40.6,30.53,ENE,67,0.0,0.0,59,0.00,CLR,,0.00,WeatherDisplay:10.37,2013-11-05 17:13:00,
2013-11-05 12:18:00,55.1,40.1,30.52,ENE,66,0.0,0.0,57,0.00,CLR,,0.00,WeatherDisplay:10.37,2013-11-05 17:18:00,
2013-11-05 12:23:00,55.5,40.5,30.52,ENE,66,0.0,0.0,57,0.00,CLR,,0.00,WeatherDisplay:10.37,2013-11-05 17:23:00,
2013-11-05 12:28:00,55.9,40.9,30.52,ENE,72,0.0,0.0,57,0.00,CLR,,0.00,WeatherDisplay:10.37,2013-11-05 17:28:00,
2013-11-05 12:33:00,56.3,40.3,30.52,ENE,71,1.2,0.0,55,0.00,CLR,,0.00,WeatherDisplay:10.37,2013-11-05 17:33:00,
2013-11-05 12:38:00,56.7,41.2,30.51,ENE,71,1.2,0.0,56,0.00,CLR,,0.00,WeatherDisplay:10.37,2013-11-05 17:38:00,
2013-11-05 12:43:00,57.0,40.5,30.51,ENE,71,0.0,0.0,54,0.00,CLR,,0.00,WeatherDisplay:10.37,2013-11-05 17:43:00,
2013-11-05 12:48:00,57.3,41.3,30.51,ENE,71,0.0,0.0,55,0.00,CLR,,0.00,WeatherDisplay:10.37,2013-11-05 17:48:00,
2013-11-05 12:53:00,57.6,41.5,30.51,ENE,71,0.0,0.0,55,0.00,CLR,,0.00,WeatherDisplay:10.37,2013-11-05 17:53:00,
2013-11-05 12:58:00,57.9,41.8,30.50,ENE,71,0.0,0.0,55,0.00,CLR,,0.00,WeatherDisplay:10.37,2013-11-05 17:58:00,
2013-11-05 13:03:00,58.2,42.6,30.50,ENE,71,0.0,0.0,56,0.00,CLR,,0.00,WeatherDisplay:10.37,2013-11-05 18:03:00,
2013-11-05 13:08:00,58.6,42.5,30.50,NNW,339,0.0,0.0,55,0.00,CLR,,0.00,WeatherDisplay:10.37,2013-11-05 18:08:00,
2013-11-05 13:13:00,58.9,42.3,30.50,NNW,339,1.2,1.2,54,0.00,CLR,,0.00,WeatherDisplay:10.37,2013-11-05 18:13:00,
2013-11-05 13:18:00,59.3,43.6,30.50,WNW,292,3.5,3.5,56,0.00,CLR,,0.00,WeatherDisplay:10.37,2013-11-05 18:18:00,
2013-11-05 13:23:00,59.8,46.7,30.50,West,270,5.8,5.8,62,0.00,CLR,,0.00,WeatherDisplay:10.37,2013-11-05 18:23:00,
2013-11-05 13:28:00,60.3,47.6,30.50,WSW,249,6.9,6.9,63,0.00,CLR,,0.00,WeatherDisplay:10.37,2013-11-05 18:28:00,
2013-11-05 13:33:00,60.8,47.7,30.49,SW,235,2.3,2.3,62,0.00,CLR,,0.00,WeatherDisplay:10.37,2013-11-05 18:33:00,
2013-11-05 13:38:00,61.4,48.7,30.49,SSW,198,10.4,10.4,63,0.00,CLR,,0.00,WeatherDisplay:10.37,2013-11-05 18:38:00,
2013-11-05 13:43:00,61.6,48.9,30.49,SSW,200,5.8,5.8,63,0.00,CLR,,0.00,WeatherDisplay:10.37,2013-11-05 18:43:00,
2013-11-05 13:48:00,62.1,48.9,30.49,WSW,237,8.1,8.1,62,0.00,CLR,,0.00,WeatherDisplay:10.37,2013-11-05 18:48:00,
2013-11-05 13:53:00,62.4,49.6,30.48,WSW,250,10.4,10.4,63,0.00,CLR,,0.00,WeatherDisplay:10.37,2013-11-05 18:53:00,
2013-11-05 13:58:00,62.5,49.3,30.49,SW,233,8.1,9.1,62,0.00,CLR,,0.00,WeatherDisplay:10.37,2013-11-05 18:58:00,
2013-11-05 14:03:00,62.6,49.4,30.48,SW,227,11.5,11.5,62,0.00,CLR,,0.00,WeatherDisplay:10.37,2013-11-05 19:03:00,
2013-11-05 14:08:00,62.8,49.1,30.48,SSW,196,6.9,6.9,61,0.00,CLR,,0.00,WeatherDisplay:10.37,2013-11-05 19:08:00,
2013-11-05 14:13:00,62.9,48.8,30.49,South,183,9.2,9.2,60,0.00,CLR,,0.00,WeatherDisplay:10.37,2013-11-05 19:13:00,
2013-11-05 14:18:00,63.0,48.0,30.48,SW,222,16.1,16.1,58,0.00,CLR,,0.00,WeatherDisplay:10.37,2013-11-05 19:18:00,
2013-11-05 14:23:00,63.0,48.4,30.48,SW,235,4.6,4.6,59,0.00,CLR,,0.00,WeatherDisplay:10.37,2013-11-05 19:23:00,
2013-11-05 14:28:00,63.2,48.2,30.48,SW,223,9.2,9.2,58,0.00,CLR,,0.00,WeatherDisplay:10.37,2013-11-05 19:28:00,
2013-11-05 14:33:00,63.4,48.4,30.48,SW,235,3.5,3.5,58,0.00,CLR,,0.00,WeatherDisplay:10.37,2013-11-05 19:33:00,
2013-11-05 14:38:00,63.5,48.5,30.48,SW,236,2.3,2.3,58,0.00,CLR,,0.00,WeatherDisplay:10.37,2013-11-05 19:38:00,
2013-11-05 14:43:00,63.7,48.6,30.48,WSW,245,10.4,10.4,58,0.00,CLR,,0.00,WeatherDisplay:10.37,2013-11-05 19:43:00,
2013-11-05 14:48:00,63.9,48.8,30.48,South,175,6.5,6.5,58,0.00,CLR,,0.00,WeatherDisplay:10.37,2013-11-05 19:48:00,
2013-11-05 14:53:00,64.1,48.5,30.47,SW,222,3.5,3.5,57,0.00,CLR,,0.00,WeatherDisplay:10.37,2013-11-05 19:53:00,
2013-11-05 14:58:00,64.4,48.8,30.47,SW,235,9.2,9.6,57,0.00,CLR,,0.00,WeatherDisplay:10.37,2013-11-05 19:58:00,
2013-11-05 15:03:00,64.5,48.0,30.47,SW,236,13.8,13.8,55,0.00,CLR,,0.00,WeatherDisplay:10.37,2013-11-05 20:03:00,
2013-11-05 15:08:00,64.4,47.4,30.47,SSW,212,8.1,8.1,54,0.00,CLR,,0.00,WeatherDisplay:10.37,2013-11-05 20:08:00,
2013-11-05 15:13:00,64.2,48.2,30.47,SW,233,6.9,6.9,56,0.00,CLR,,0.00,WeatherDisplay:10.37,2013-11-05 20:13:00,
2013-11-05 15:18:00,64.0,47.0,30.47,West,262,9.8,9.8,54,0.00,CLR,,0.00,WeatherDisplay:10.37,2013-11-05 20:18:00,
2013-11-05 15:23:00,63.8,47.3,30.47,SW,230,9.2,9.2,55,0.00,CLR,,0.00,WeatherDisplay:10.37,2013-11-05 20:23:00,
2013-11-05 15:28:00,63.7,47.2,30.47,WSW,246,8.1,8.1,55,0.00,CLR,,0.00,WeatherDisplay:10.37,2013-11-05 20:28:00,
2013-11-05 15:33:00,63.7,47.7,30.47,SSW,210,10.4,10.4,56,0.00,CLR,,0.00,WeatherDisplay:10.37,2013-11-05 20:33:00,
2013-11-05 15:38:00,63.7,47.7,30.46,WSW,241,9.3,9.3,56,0.00,CLR,,0.00,WeatherDisplay:10.37,2013-11-05 20:38:00,
2013-11-05 15:43:00,63.7,47.2,30.46,SW,236,6.9,6.9,55,0.00,CLR,,0.00,WeatherDisplay:10.37,2013-11-05 20:43:00,
2013-11-05 15:48:00,63.7,47.7,30.46,SW,220,4.0,4.0,56,0.00,CLR,,0.00,WeatherDisplay:10.37,2013-11-05 20:48:00,
2013-11-05 15:53:00,63.5,47.5,30.46,SSW,210,4.0,4.0,56,0.00,CLR,,0.00,WeatherDisplay:10.37,2013-11-05 20:53:00,
2013-11-05 15:58:00,63.3,47.3,30.46,SSW,196,8.0,8.0,56,0.00,CLR,,0.00,WeatherDisplay:10.37,2013-11-05 20:58:00,
2013-11-05 16:03:00,63.1,47.6,30.46,WSW,244,2.3,2.3,57,0.00,CLR,,0.00,WeatherDisplay:10.37,2013-11-05 21:03:00,
2013-11-05 16:08:00,63.0,47.5,30.46,West,260,0.0,0.0,57,0.00,CLR,,0.00,WeatherDisplay:10.37,2013-11-05 21:08:00,
2013-11-05 16:13:00,63.0,47.5,30.46,West,261,2.2,2.2,57,0.00,CLR,,0.00,WeatherDisplay:10.37,2013-11-05 21:13:00,
2013-11-05 16:18:00,62.9,47.4,30.45,SW,235,0.0,0.0,57,0.00,CLR,,0.00,WeatherDisplay:10.37,2013-11-05 21:18:00,
2013-11-05 16:23:00,63.0,48.0,30.45,SW,235,1.3,1.3,58,0.00,CLR,,0.00,WeatherDisplay:10.37,2013-11-05 21:23:00,
2013-11-05 16:28:00,63.0,48.0,30.44,SW,231,0.0,0.0,58,0.00,CLR,,0.00,WeatherDisplay:10.37,2013-11-05 21:28:00,
2013-11-05 16:33:00,63.0,48.0,30.44,SW,227,8.1,8.1,58,0.00,CLR,,0.00,WeatherDisplay:10.37,2013-11-05 21:33:00,
2013-11-05 16:38:00,63.0,48.0,30.44,SW,227,0.0,0.0,58,0.00,CLR,,0.00,WeatherDisplay:10.37,2013-11-05 21:38:00,
2013-11-05 16:44:00,62.9,47.9,30.44,SW,227,1.2,0.0,58,0.00,CLR,,0.00,WeatherDisplay:10.37,2013-11-05 21:44:00,
2013-11-05 16:49:00,62.9,47.9,30.44,SW,227,0.0,0.0,58,0.00,CLR,,0.00,WeatherDisplay:10.37,2013-11-05 21:49:00,
2013-11-05 16:54:00,62.8,47.8,30.44,SW,227,0.0,0.0,58,0.00,CLR,,0.00,WeatherDisplay:10.37,2013-11-05 21:54:00,
2013-11-05 16:59:00,62.7,47.7,30.44,SW,227,1.2,1.2,58,0.00,CLR,,0.00,WeatherDisplay:10.37,2013-11-05 21:59:00,
2013-11-05 17:04:00,62.6,47.6,30.44,SW,232,0.0,0.0,58,0.00,CLR,,0.00,WeatherDisplay:10.37,2013-11-05 22:04:00,
2013-11-05 17:09:00,62.4,47.4,30.44,SW,232,1.2,1.2,58,0.00,CLR,,0.00,WeatherDisplay:10.37,2013-11-05 22:09:00,
2013-11-05 17:14:00,62.2,47.2,30.44,SW,231,0.0,0.2,58,0.00,CLR,,0.00,WeatherDisplay:10.37,2013-11-05 22:14:00,
2013-11-05 17:19:00,62.0,47.0,30.45,SW,231,0.0,0.0,58,0.00,CLR,,0.00,WeatherDisplay:10.37,2013-11-05 22:19:00,
2013-11-05 17:24:00,61.6,47.1,30.45,SSW,207,1.2,0.0,59,0.00,CLR,,0.00,WeatherDisplay:10.37,2013-11-05 22:24:00,
2013-11-05 17:29:00,61.6,47.1,30.45,SSW,207,2.3,2.3,59,0.00,CLR,,0.00,WeatherDisplay:10.37,2013-11-05 22:29:00,
2013-11-05 17:34:00,61.1,47.1,30.45,SSW,200,4.4,4.4,60,0.00,CLR,,0.00,WeatherDisplay:10.37,2013-11-05 22:34:00,
2013-11-05 17:39:00,60.7,46.7,30.45,SSW,200,5.8,5.8,60,0.00,CLR,,0.00,WeatherDisplay:10.37,2013-11-05 22:39:00,
2013-11-05 17:44:00,60.4,46.9,30.45,SSW,197,2.3,2.3,61,0.00,CLR,,0.00,WeatherDisplay:10.37,2013-11-05 22:44:00,
2013-11-05 17:49:00,60.1,47.0,30.45,SSW,198,5.8,5.8,62,0.00,CLR,,0.00,WeatherDisplay:10.37,2013-11-05 22:49:00,
2013-11-05 17:54:00,59.9,46.8,30.45,SSW,198,1.2,1.2,62,0.00,CLR,,0.00,WeatherDisplay:10.37,2013-11-05 22:54:00,
2013-11-05 17:59:00,59.6,46.6,30.45,SSW,198,4.6,4.6,62,0.00,CLR,,0.00,WeatherDisplay:10.37,2013-11-05 22:59:00,
2013-11-05 18:04:00,59.4,46.4,30.45,SSW,199,1.2,0.0,62,0.00,CLR,,0.00,WeatherDisplay:10.37,2013-11-05 23:04:00,
2013-11-05 18:09:00,59.2,46.2,30.45,SSW,199,0.0,0.0,62,0.00,CLR,,0.00,WeatherDisplay:10.37,2013-11-05 23:09:00,
2013-11-05 18:14:00,59.0,46.0,30.45,SSW,199,0.0,0.0,62,0.00,CLR,,0.00,WeatherDisplay:10.37,2013-11-05 23:14:00,
2013-11-05 18:19:00,58.9,45.9,30.45,SSW,199,0.0,0.0,62,0.00,CLR,,0.00,WeatherDisplay:10.37,2013-11-05 23:19:00,
2013-11-05 18:24:00,58.7,46.1,30.45,SSW,199,0.0,0.0,63,0.00,CLR,,0.00,WeatherDisplay:10.37,2013-11-05 23:24:00,
2013-11-05 18:29:00,58.5,46.4,30.45,SSW,199,0.0,0.0,64,0.00,CLR,,0.00,WeatherDisplay:10.37,2013-11-05 23:29:00,
2013-11-05 18:34:00,58.3,46.2,30.45,SSW,199,0.0,0.0,64,0.00,CLR,,0.00,WeatherDisplay:10.37,2013-11-05 23:34:00,
2013-11-05 18:39:00,58.1,46.0,30.45,SSW,199,0.0,0.0,64,0.00,CLR,,0.00,WeatherDisplay:10.37,2013-11-05 23:39:00,
2013-11-05 18:44:00,57.8,46.1,30.46,SSW,199,0.0,0.0,65,0.00,CLR,,0.00,WeatherDisplay:10.37,2013-11-05 23:44:00,
2013-11-05 18:49:00,57.6,45.9,30.45,SSW,199,0.0,0.0,65,0.00,CLR,,0.00,WeatherDisplay:10.37,2013-11-05 23:49:00,
2013-11-05 18:54:00,57.4,46.1,30.46,SSW,199,0.0,0.0,66,0.00,CLR,,0.00,WeatherDisplay:10.37,2013-11-05 23:54:00,
2013-11-05 18:59:00,57.1,45.8,30.46,SSW,199,0.0,0.0,66,0.00,CLR,,0.00,WeatherDisplay:10.37,2013-11-05 23:59:00,
2013-11-05 19:04:00,56.9,45.3,30.46,SSW,199,0.0,0.0,65,0.00,CLR,,0.00,WeatherDisplay:10.37,2013-11-06 00:04:00,
2013-11-05 19:09:00,56.7,45.9,30.46,SSW,199,0.0,0.0,67,0.00,CLR,,0.00,WeatherDisplay:10.37,2013-11-06 00:09:00,
2013-11-05 19:14:00,56.5,44.9,30.46,SSW,199,0.0,0.0,65,0.00,CLR,,0.00,WeatherDisplay:10.37,2013-11-06 00:14:00,
2013-11-05 19:19:00,56.4,44.8,30.46,SSW,199,0.0,0.0,65,0.00,CLR,,0.00,WeatherDisplay:10.37,2013-11-06 00:19:00,
2013-11-05 19:24:00,56.2,45.0,30.46,SSW,199,0.0,0.0,66,0.00,CLR,,0.00,WeatherDisplay:10.37,2013-11-06 00:24:00,
2013-11-05 19:29:00,55.9,43.5,30.46,SSW,199,0.0,0.0,63,0.00,CLR,,0.00,WeatherDisplay:10.37,2013-11-06 00:29:00,
2013-11-05 19:34:00,55.7,43.7,30.46,SSW,199,0.0,0.0,64,0.00,CLR,,0.00,WeatherDisplay:10.37,2013-11-06 00:34:00,
2013-11-05 19:39:00,55.5,44.3,30.46,SSW,199,0.0,0.0,66,0.00,CLR,,0.00,WeatherDisplay:10.37,2013-11-06 00:39:00,
2013-11-05 19:44:00,55.4,44.6,30.46,SSW,199,0.0,0.0,67,0.00,CLR,,0.00,WeatherDisplay:10.37,2013-11-06 00:44:00,
2013-11-05 19:49:00,55.2,44.4,30.46,SSW,199,0.0,0.0,67,0.00,CLR,,0.00,WeatherDisplay:10.37,2013-11-06 00:49:00,
2013-11-05 19:54:00,54.9,44.1,30.46,SSW,198,2.2,2.2,67,0.00,CLR,,0.00,WeatherDisplay:10.37,2013-11-06 00:54:00,
2013-11-05 19:59:00,54.7,44.0,30.46,SSW,198,0.0,0.0,67,0.00,CLR,,0.00,WeatherDisplay:10.37,2013-11-06 00:59:00,
2013-11-05 20:04:00,54.4,43.3,30.46,ESE,112,5.8,0.0,66,0.00,CLR,,0.00,WeatherDisplay:10.37,2013-11-06 01:04:00,
2013-11-05 20:09:00,54.3,44.3,30.45,ESE,112,0.0,0.0,69,0.00,CLR,,0.00,WeatherDisplay:10.37,2013-11-06 01:09:00,
2013-11-05 20:14:00,54.1,45.3,30.46,ESE,111,0.0,0.0,72,0.00,CLR,,0.00,WeatherDisplay:10.37,2013-11-06 01:14:00,
2013-11-05 20:19:00,53.7,44.9,30.45,ESE,112,0.0,0.0,72,0.00,CLR,,0.00,WeatherDisplay:10.37,2013-11-06 01:19:00,
2013-11-05 20:24:00,53.3,44.9,30.45,SE,138,0.0,0.0,73,0.00,CLR,,0.00,WeatherDisplay:10.37,2013-11-06 01:24:00,
2013-11-05 20:29:00,52.9,44.5,30.46,SE,144,4.6,0.0,73,0.00,CLR,,0.00,WeatherDisplay:10.37,2013-11-06 01:29:00,
2013-11-05 20:34:00,52.4,44.4,30.46,SE,144,0.0,0.0,74,0.00,CLR,,0.00,WeatherDisplay:10.37,2013-11-06 01:34:00,
2013-11-05 20:39:00,52.0,44.0,30.46,SE,144,0.0,0.0,74,0.00,CLR,,0.00,WeatherDisplay:10.37,2013-11-06 01:39:00,
2013-11-05 20:44:00,51.7,43.7,30.46,SE,144,0.0,0.0,74,0.00,CLR,,0.00,WeatherDisplay:10.37,2013-11-06 01:44:00,
2013-11-05 20:49:00,51.4,43.4,30.45,SE,144,0.0,0.0,74,0.00,CLR,,0.00,WeatherDisplay:10.37,2013-11-06 01:49:00,
2013-11-05 20:54:00,51.2,43.5,30.46,SE,142,1.2,0.0,75,0.00,CLR,,0.00,WeatherDisplay:10.37,2013-11-06 01:54:00,
2013-11-05 20:59:00,51.0,43.4,30.46,SE,142,0.0,0.0,75,0.00,CLR,,0.00,WeatherDisplay:10.37,2013-11-06 01:59:00,
2013-11-05 21:04:00,50.9,42.9,30.46,SE,142,0.0,0.0,74,0.00,CLR,,0.00,WeatherDisplay:10.37,2013-11-06 02:04:00,
2013-11-05 21:09:00,50.7,43.1,30.46,SE,142,0.0,0.0,75,0.00,CLR,,0.00,WeatherDisplay:10.37,2013-11-06 02:09:00,
2013-11-05 21:14:00,50.6,43.0,30.46,SE,142,0.0,0.0,75,0.00,CLR,,0.00,WeatherDisplay:10.37,2013-11-06 02:14:00,
2013-11-05 21:19:00,50.4,43.1,30.46,SE,142,0.0,0.0,76,0.00,CLR,,0.00,WeatherDisplay:10.37,2013-11-06 02:19:00,
2013-11-05 21:24:00,50.2,42.9,30.46,SE,142,0.0,0.0,76,0.00,CLR,,0.00,WeatherDisplay:10.37,2013-11-06 02:24:00,
2013-11-05 21:29:00,50.0,43.1,30.46,SE,142,0.0,0.0,77,0.00,CLR,,0.00,WeatherDisplay:10.37,2013-11-06 02:29:00,
2013-11-05 21:34:00,49.8,43.2,30.46,SE,141,0.0,0.1,78,0.00,CLR,,0.00,WeatherDisplay:10.37,2013-11-06 02:34:00,
2013-11-05 21:39:00,49.5,43.3,30.46,ENE,71,0.0,0.0,79,0.00,CLR,,0.00,WeatherDisplay:10.37,2013-11-06 02:39:00,
2013-11-05 21:44:00,49.2,43.0,30.47,ENE,71,0.0,0.0,79,0.00,CLR,,0.00,WeatherDisplay:10.37,2013-11-06 02:44:00,
2013-11-05 21:49:00,48.9,42.7,30.47,ENE,71,0.0,0.0,79,0.00,CLR,,0.00,WeatherDisplay:10.37,2013-11-06 02:49:00,
2013-11-05 21:54:00,48.7,42.5,30.47,ENE,71,1.2,1.2,79,0.00,CLR,,0.00,WeatherDisplay:10.37,2013-11-06 02:54:00,
2013-11-05 21:59:00,48.6,42.4,30.47,ENE,69,3.5,3.5,79,0.00,CLR,,0.00,WeatherDisplay:10.37,2013-11-06 02:59:00,
2013-11-05 22:04:00,48.6,42.4,30.47,NE,40,1.2,0.0,79,0.00,CLR,,0.00,WeatherDisplay:10.37,2013-11-06 03:04:00,
2013-11-05 22:09:00,48.6,42.7,30.47,NE,38,0.0,0.0,80,0.00,CLR,,0.00,WeatherDisplay:10.37,2013-11-06 03:09:00,
2013-11-05 22:14:00,48.6,43.0,30.47,NE,39,0.0,0.0,81,0.00,CLR,,0.00,WeatherDisplay:10.37,2013-11-06 03:14:00,
2013-11-05 22:19:00,48.5,42.3,30.47,NE,41,0.0,0.0,79,0.00,CLR,,0.00,WeatherDisplay:10.37,2013-11-06 03:19:00,
2013-11-05 22:24:00,48.5,42.9,30.47,NE,39,0.0,0.0,81,0.00,CLR,,0.00,WeatherDisplay:10.37,2013-11-06 03:24:00,
2013-11-05 22:29:00,48.4,42.2,30.47,NE,52,1.2,0.0,79,0.00,CLR,,0.00,WeatherDisplay:10.37,2013-11-06 03:29:00,
2013-11-05 22:34:00,48.4,42.5,30.47,NE,52,0.0,0.0,80,0.00,CLR,,0.00,WeatherDisplay:10.37,2013-11-06 03:34:00,
2013-11-05 22:39:00,48.2,42.6,30.47,NE,48,0.0,0.0,81,0.00,CLR,,0.00,WeatherDisplay:10.37,2013-11-06 03:39:00,
2013-11-05 22:44:00,48.0,42.8,30.47,NE,48,0.0,0.0,82,0.00,CLR,,0.00,WeatherDisplay:10.37,2013-11-06 03:44:00,
2013-11-05 22:49:00,47.8,42.6,30.47,NE,48,0.0,0.0,82,0.00,CLR,,0.00,WeatherDisplay:10.37,2013-11-06 03:49:00,
2013-11-05 22:54:00,47.6,42.4,30.46,NE,48,0.0,0.0,82,0.00,CLR,,0.00,WeatherDisplay:10.37,2013-11-06 03:54:00,
2013-11-05 22:59:00,47.6,42.1,30.46,NE,47,0.0,0.0,81,0.00,CLR,,0.00,WeatherDisplay:10.37,2013-11-06 03:59:00,
2013-11-05 23:04:00,47.6,42.1,30.47,NE,47,0.0,0.0,81,0.00,CLR,,0.00,WeatherDisplay:10.37,2013-11-06 04:04:00,
2013-11-05 23:09:00,47.6,42.4,30.46,NE,47,0.0,0.0,82,0.00,CLR,,0.00,WeatherDisplay:10.37,2013-11-06 04:09:00,
2013-11-05 23:14:00,47.5,42.3,30.46,NE,47,0.0,0.0,82,0.00,CLR,,0.00,WeatherDisplay:10.37,2013-11-06 04:14:00,
2013-11-05 23:19:00,47.5,41.6,30.46,NE,47,0.0,0.0,80,0.00,CLR,,0.00,WeatherDisplay:10.37,2013-11-06 04:19:00,
2013-11-05 23:24:00,47.4,41.5,30.46,NE,47,1.2,0.0,80,0.00,CLR,,0.00,WeatherDisplay:10.37,2013-11-06 04:24:00,
2013-11-05 23:29:00,47.4,40.9,30.46,ENE,61,0.0,0.0,78,0.00,CLR,,0.00,WeatherDisplay:10.37,2013-11-06 04:29:00,
2013-11-05 23:34:00,47.3,40.5,30.46,ENE,60,0.0,0.0,77,0.00,CLR,,0.00,WeatherDisplay:10.37,2013-11-06 04:34:00,
2013-11-05 23:39:00,47.3,39.4,30.46,ENE,59,0.0,0.0,74,0.00,CLR,,0.00,WeatherDisplay:10.37,2013-11-06 04:39:00,
2013-11-05 23:44:00,47.4,39.5,30.46,ENE,59,0.0,0.0,74,0.00,CLR,,0.00,WeatherDisplay:10.37,2013-11-06 04:44:00,
2013-11-05 23:49:00,47.4,39.9,30.46,ENE,60,0.0,0.0,75,0.00,CLR,,0.00,WeatherDisplay:10.37,2013-11-06 04:49:00,
2013-11-05 23:54:00,47.4,39.5,30.46,NE,34,3.3,3.3,74,0.00,CLR,,0.00,WeatherDisplay:10.37,2013-11-06 04:54:00,
2013-11-05 23:59:00,47.5,39.3,30.46,NNE,33,0.0,0.0,73,0.00,CLR,,0.00,WeatherDisplay:10.37,2013-11-06 04:59:00,